Archival Weather

Vermilion Rgnl

Danville, Illinois (KDNV)

Report from: Saturday, April 13, 2024 7:35 AM CDT
Current time: Sunday, July 14, 2024 6:40 AM CDT

Current weather – Weather history – Daily summaries
Weather forecast

Temperature8.5°C (47.3°F)
Wind chill7.0°C (44.6°F)
Dew point2.1°C (35.8°F)
Winds 5 kts (2.6 m/s, 5.8 mph) West (260°)
Visibility10 mi. (16.1 km)
Clouds Sky clear
Altimeter30.14 in.Hg (1021 mB)
Relative humidity64 %
Density altitude-924 ft. (-282 m)
Remarks Fully automated report
Automated weather observing station with precipitation discriminator
Flight conditions Visual Meteorological Conditions
Raw dataKDNV 131235Z AUTO 26005KT 10SM CLR 09/02 A3014 RMK AO2 T00850021
An error has occurred. This application may no longer respond until reloaded. Reload 🗙